»·PEaware :: N106AZ KDUG-KDVT

N106AZ :: KDUG-KDVT

FLIGHT INFORMATION

Flight Status: Arrived
Operator: Privately registered:
United States
More flights under this callsign
Pilot: Spencer F. (32151)
Aircraft: CESSNA 172 SKYHAWK
(C172)
More flights by this aircraft type
Origin: KDUG Bisbee Douglas Intl
United States
Destination: KDVT Phoenix Deer Valley
United States
More flights between these airports :: More routes between these airports
Route:
File this flight plan on PilotEdge
Remarks:
Altitude:
(Current/Filed)
9,500ft
Speed:
(Current/Filed)
124kts
Departed: 14-Jan-21 09:33 AM
Arrived: 14-Jan-21 11:08 AM
Distance/Time
Traveled:
183nm/1:35
Distance/Time
To Go:
Arrived

Flight Plot

Page will automatically refresh every two minutes.

Flight plan parsing failed; only flown route is shown


Map Options




Map Legend


Flown Route
Filed Route
Departure Airport
Arrival Airport
Navaid (VOR, NDB)
Fix

Horizontal Profiles

Position Reports

Time Latitude Longitude Heading Altitude Ground
Speed
14-Jan-21 09:21 31.459484 -109.603592 263 4099ft 0kts
14-Jan-21 09:22 31.459484 -109.603592 263 4099ft 0kts
14-Jan-21 09:23 31.459484 -109.603592 263 4099ft 0kts
14-Jan-21 09:24 31.459484 -109.603592 263 4099ft 0kts
14-Jan-21 09:25 31.459484 -109.603592 263 4099ft 0kts
14-Jan-21 09:26 31.459484 -109.603592 263 4099ft 0kts
14-Jan-21 09:27 31.459484 -109.603592 263 4099ft 0kts
14-Jan-21 09:28 31.459484 -109.603592 263 4099ft 0kts
14-Jan-21 09:29 31.459484 -109.603592 263 4099ft 0kts
14-Jan-21 09:30 31.459484 -109.603592 263 4099ft 0kts
14-Jan-21 09:31 31.459484 -109.603592 263 4099ft 0kts
14-Jan-21 09:32 31.469046 -109.604616 358 4272ft 73kts
14-Jan-21 09:33 31.490594 -109.607841 351 5014ft 74kts
14-Jan-21 09:34 31.509737 -109.611003 351 5744ft 65kts
14-Jan-21 09:35 31.527490 -109.613914 351 6370ft 62kts
14-Jan-21 09:36 31.544844 -109.616901 351 6957ft 62kts
14-Jan-21 09:37 31.561939 -109.619914 351 7526ft 61kts
14-Jan-21 09:38 31.578503 -109.623478 349 8074ft 59kts
14-Jan-21 09:39 31.594575 -109.627303 349 8596ft 57kts
14-Jan-21 09:40 31.610374 -109.631153 349 9082ft 56kts
14-Jan-21 09:41 31.625974 -109.634967 349 9491ft 63kts
14-Jan-21 09:42 31.651270 -109.640688 349 9507ft 113kts
14-Jan-21 09:43 31.684243 -109.647982 349 9500ft 121kts
14-Jan-21 09:44 31.718166 -109.655445 349 9497ft 122kts
14-Jan-21 09:45 31.752170 -109.662875 349 9498ft 122kts
14-Jan-21 09:46 31.786244 -109.670292 349 9500ft 122kts
14-Jan-21 09:47 31.820266 -109.677651 349 9498ft 122kts
14-Jan-21 09:48 31.854331 -109.684967 349 9497ft 122kts
14-Jan-21 09:49 31.888246 -109.692242 349 9497ft 122kts
14-Jan-21 09:50 31.922172 -109.699515 349 9499ft 122kts
14-Jan-21 09:51 31.956103 -109.706707 349 9497ft 122kts
14-Jan-21 09:52 31.990074 -109.713910 349 9499ft 122kts
14-Jan-21 09:53 32.024218 -109.721114 349 9497ft 122kts
14-Jan-21 09:54 32.058263 -109.728314 349 9497ft 122kts
14-Jan-21 09:55 32.092278 -109.735484 349 9502ft 122kts
14-Jan-21 09:56 32.126058 -109.742852 340 9496ft 123kts
14-Jan-21 09:57 32.148028 -109.775603 312 9500ft 126kts
14-Jan-21 09:58 32.170321 -109.808205 312 9501ft 126kts
14-Jan-21 09:59 32.192779 -109.841092 312 9499ft 126kts
14-Jan-21 10:00 32.215150 -109.873771 312 9500ft 126kts
14-Jan-21 10:01 32.237501 -109.906467 312 9501ft 126kts
14-Jan-21 10:02 32.260016 -109.939295 312 9503ft 126kts
14-Jan-21 10:03 32.282385 -109.972018 312 9502ft 126kts
14-Jan-21 10:04 32.304778 -110.004796 312 9497ft 126kts
14-Jan-21 10:05 32.327138 -110.037583 312 9499ft 126kts
14-Jan-21 10:06 32.349498 -110.070384 312 9497ft 126kts
14-Jan-21 10:07 32.371918 -110.103363 312 9492ft 126kts
14-Jan-21 10:08 32.394399 -110.136373 312 9485ft 127kts
14-Jan-21 10:09 32.416665 -110.169075 313 9479ft 125kts
14-Jan-21 10:10 32.439191 -110.202340 313 9481ft 129kts
14-Jan-21 10:11 32.461977 -110.236036 312 9471ft 130kts
14-Jan-21 10:13 32.484769 -110.270101 313 9472ft 129kts
14-Jan-21 10:14 32.507429 -110.303939 313 9474ft 128kts
14-Jan-21 10:15 32.530115 -110.337770 313 9472ft 129kts
14-Jan-21 10:16 32.552893 -110.371758 313 9472ft 129kts
14-Jan-21 10:17 32.575625 -110.405721 313 9472ft 129kts
14-Jan-21 10:18 32.598286 -110.439541 313 9472ft 129kts
14-Jan-21 10:19 32.622218 -110.472239 316 9470ft 129kts
14-Jan-21 10:20 32.646344 -110.504468 316 9474ft 129kts
14-Jan-21 10:21 32.670696 -110.536943 316 9472ft 129kts
14-Jan-21 10:22 32.694923 -110.569262 316 9469ft 128kts
14-Jan-21 10:23 32.719099 -110.601550 316 9469ft 128kts
14-Jan-21 10:24 32.743344 -110.633881 316 9473ft 128kts
14-Jan-21 10:25 32.767414 -110.666051 316 9471ft 128kts
14-Jan-21 10:26 32.791571 -110.698451 315 9472ft 128kts
14-Jan-21 10:27 32.815557 -110.730948 316 9471ft 128kts
14-Jan-21 10:28 32.839647 -110.763598 316 9469ft 128kts
14-Jan-21 10:28 32.859644 -110.790740 316 9469ft 128kts
14-Jan-21 10:30 32.887601 -110.828636 316 9468ft 129kts
14-Jan-21 10:31 32.911667 -110.861258 316 9473ft 128kts
14-Jan-21 10:31 32.931686 -110.888345 316 9471ft 128kts
14-Jan-21 10:32 32.955716 -110.920868 316 9468ft 129kts
14-Jan-21 10:33 32.979805 -110.953457 316 9469ft 129kts
14-Jan-21 10:34 33.003846 -110.986010 316 9471ft 128kts
14-Jan-21 10:35 33.027879 -111.018461 316 9473ft 128kts
14-Jan-21 10:36 33.052015 -111.051035 316 9473ft 128kts
14-Jan-21 10:37 33.076244 -111.083642 316 9224ft 130kts
14-Jan-21 10:38 33.100993 -111.116620 316 8708ft 131kts
14-Jan-21 10:39 33.126321 -111.150254 316 7984ft 139kts
14-Jan-21 10:40 33.153131 -111.185380 316 7082ft 142kts
14-Jan-21 10:41 33.180319 -111.220884 316 6172ft 143kts
14-Jan-21 10:42 33.207895 -111.256510 316 5267ft 144kts
14-Jan-21 10:43 33.236187 -111.291617 316 4357ft 145kts
14-Jan-21 10:44 33.264051 -111.327045 316 3517ft 138kts
14-Jan-21 10:45 33.286793 -111.358379 306 3494ft 120kts
14-Jan-21 10:46 33.306096 -111.395884 305 3493ft 134kts
14-Jan-21 10:47 33.326292 -111.434853 305 3490ft 135kts
14-Jan-21 10:48 33.346587 -111.473919 306 3495ft 136kts
14-Jan-21 10:49 33.367641 -111.512441 308 3485ft 135kts
14-Jan-21 10:50 33.388907 -111.550371 308 3484ft 137kts
14-Jan-21 10:51 33.410237 -111.588386 307 3478ft 135kts
14-Jan-21 10:52 33.435705 -111.622158 317 3490ft 133kts
14-Jan-21 10:53 33.461784 -111.655371 316 3486ft 134kts
14-Jan-21 10:54 33.487939 -111.688537 316 3482ft 135kts
14-Jan-21 10:55 33.513863 -111.721313 316 3486ft 133kts
14-Jan-21 10:56 33.539735 -111.753987 316 3487ft 132kts
14-Jan-21 10:57 33.565659 -111.786713 316 3483ft 132kts
14-Jan-21 10:58 33.591437 -111.819301 317 3484ft 132kts
14-Jan-21 10:59 33.617152 -111.851761 316 3485ft 131kts
14-Jan-21 11:00 33.642831 -111.884159 317 3480ft 132kts
14-Jan-21 11:01 33.668497 -111.916557 316 3481ft 132kts
14-Jan-21 11:02 33.689380 -111.953496 298 3049ft 130kts
14-Jan-21 11:03 33.693097 -111.991302 267 2590ft 104kts
14-Jan-21 11:04 33.691045 -112.022441 265 2174ft 84kts
14-Jan-21 11:05 33.689679 -112.049273 265 1895ft 78kts
14-Jan-21 11:06 33.688047 -112.075556 265 1477ft 67kts
14-Jan-21 11:07 33.686922 -112.084863 219 1457ft 0kts
14-Jan-21 11:08 33.686922 -112.084863 219 1457ft 0kts
14-Jan-21 11:09 33.686922 -112.084863 219 1457ft 0kts
14-Jan-21 11:10 33.686922 -112.084863 220 1457ft 0kts
14-Jan-21 11:11 33.686922 -112.084863 220 1457ft 0kts
14-Jan-21 11:12 33.686922 -112.084863 220 1457ft 0kts
14-Jan-21 11:13 33.686922 -112.084863 220 1457ft 0kts
14-Jan-21 11:14 33.686922 -112.084863 220 1457ft 0kts
14-Jan-21 11:15 33.686922 -112.084863 220 1457ft 0kts
14-Jan-21 11:16 33.686922 -112.084863 220 1457ft 0kts
14-Jan-21 11:17 33.686922 -112.084863 220 1457ft 0kts
14-Jan-21 11:18 33.686922 -112.084863 220 1457ft 0kts
14-Jan-21 11:19 33.686922 -112.084863 220 1457ft 0kts
14-Jan-21 11:20 33.686922 -112.084863 220 1457ft 0kts
14-Jan-21 11:21 33.686922 -112.084863 220 1457ft 0kts

Navigation Log

Ident Type
Flight plan parsing failed, navigation log unavailable